sensor_id;sensor_type;location;lat;lon;timestamp;P1;durP1;ratioP1;P2;durP2;ratioP2
43606;SDS011;29197;44.788;10.366;2022-07-04T00:01:00;4.20;;;2.33;;
43606;SDS011;29197;44.788;10.366;2022-07-04T00:03:49;4.15;;;2.00;;
43606;SDS011;29197;44.788;10.366;2022-07-04T00:06:38;3.30;;;2.10;;
43606;SDS011;29197;44.788;10.366;2022-07-04T00:09:28;2.95;;;2.20;;
43606;SDS011;29197;44.788;10.366;2022-07-04T00:12:19;4.55;;;2.35;;
43606;SDS011;29197;44.788;10.366;2022-07-04T00:15:09;4.53;;;2.55;;
43606;SDS011;29197;44.788;10.366;2022-07-04T00:17:59;5.18;;;2.63;;
43606;SDS011;29197;44.788;10.366;2022-07-04T00:20:48;2.85;;;2.15;;
43606;SDS011;29197;44.788;10.366;2022-07-04T00:23:37;2.90;;;2.20;;
43606;SDS011;29197;44.788;10.366;2022-07-04T00:26:27;2.97;;;2.28;;
43606;SDS011;29197;44.788;10.366;2022-07-04T00:29:18;2.78;;;2.20;;
43606;SDS011;29197;44.788;10.366;2022-07-04T00:32:07;2.42;;;1.90;;
43606;SDS011;29197;44.788;10.366;2022-07-04T00:34:57;3.22;;;2.25;;
43606;SDS011;29197;44.788;10.366;2022-07-04T00:37:47;2.90;;;1.90;;
43606;SDS011;29197;44.788;10.366;2022-07-04T00:40:37;3.85;;;1.80;;
43606;SDS011;29197;44.788;10.366;2022-07-04T00:43:27;7.65;;;2.40;;
43606;SDS011;29197;44.788;10.366;2022-07-04T00:46:24;2.67;;;1.95;;
43606;SDS011;29197;44.788;10.366;2022-07-04T00:49:13;2.20;;;2.00;;
43606;SDS011;29197;44.788;10.366;2022-07-04T00:52:04;4.55;;;1.98;;
43606;SDS011;29197;44.788;10.366;2022-07-04T00:54:54;2.42;;;1.95;;
43606;SDS011;29197;44.788;10.366;2022-07-04T00:57:43;3.13;;;1.95;;
43606;SDS011;29197;44.788;10.366;2022-07-04T01:00:33;2.67;;;1.88;;
43606;SDS011;29197;44.788;10.366;2022-07-04T01:03:24;2.38;;;2.08;;
43606;SDS011;29197;44.788;10.366;2022-07-04T01:06:13;3.95;;;2.33;;
43606;SDS011;29197;44.788;10.366;2022-07-04T01:09:03;3.78;;;1.77;;
43606;SDS011;29197;44.788;10.366;2022-07-04T01:11:53;2.72;;;2.00;;
43606;SDS011;29197;44.788;10.366;2022-07-04T01:14:43;2.85;;;2.05;;
43606;SDS011;29197;44.788;10.366;2022-07-04T01:17:33;3.20;;;1.88;;
43606;SDS011;29197;44.788;10.366;2022-07-04T01:20:23;5.78;;;2.13;;
43606;SDS011;29197;44.788;10.366;2022-07-04T01:23:13;4.05;;;2.03;;
43606;SDS011;29197;44.788;10.366;2022-07-04T01:26:02;2.60;;;2.00;;
43606;SDS011;29197;44.788;10.366;2022-07-04T01:28:51;1.67;;;1.52;;
43606;SDS011;29197;44.788;10.366;2022-07-04T01:31:41;2.42;;;1.92;;
43606;SDS011;29197;44.788;10.366;2022-07-04T01:34:30;2.53;;;1.80;;
43606;SDS011;29197;44.788;10.366;2022-07-04T01:37:20;2.25;;;1.75;;
43606;SDS011;29197;44.788;10.366;2022-07-04T01:40:11;2.20;;;2.00;;
43606;SDS011;29197;44.788;10.366;2022-07-04T01:43:00;5.15;;;2.05;;
43606;SDS011;29197;44.788;10.366;2022-07-04T01:45:50;5.38;;;2.15;;
43606;SDS011;29197;44.788;10.366;2022-07-04T01:48:40;3.15;;;2.30;;
43606;SDS011;29197;44.788;10.366;2022-07-04T01:51:29;3.30;;;2.17;;
43606;SDS011;29197;44.788;10.366;2022-07-04T01:54:20;3.47;;;2.35;;
43606;SDS011;29197;44.788;10.366;2022-07-04T01:57:12;3.08;;;2.03;;
43606;SDS011;29197;44.788;10.366;2022-07-04T02:00:01;2.00;;;1.80;;
43606;SDS011;29197;44.788;10.366;2022-07-04T02:03:08;2.50;;;2.00;;
43606;SDS011;29197;44.788;10.366;2022-07-04T02:05:57;2.60;;;1.63;;
43606;SDS011;29197;44.788;10.366;2022-07-04T02:08:46;3.05;;;1.52;;
43606;SDS011;29197;44.788;10.366;2022-07-04T02:11:54;2.17;;;1.60;;
43606;SDS011;29197;44.788;10.366;2022-07-04T02:15:00;2.88;;;1.55;;
43606;SDS011;29197;44.788;10.366;2022-07-04T02:17:50;4.53;;;1.73;;
43606;SDS011;29197;44.788;10.366;2022-07-04T02:20:39;1.92;;;1.80;;
43606;SDS011;29197;44.788;10.366;2022-07-04T02:23:29;2.67;;;1.83;;
43606;SDS011;29197;44.788;10.366;2022-07-04T02:26:18;2.35;;;1.90;;
43606;SDS011;29197;44.788;10.366;2022-07-04T02:29:09;2.22;;;1.67;;
43606;SDS011;29197;44.788;10.366;2022-07-04T02:31:58;3.33;;;2.28;;
43606;SDS011;29197;44.788;10.366;2022-07-04T02:34:47;2.42;;;2.22;;
43606;SDS011;29197;44.788;10.366;2022-07-04T02:37:36;1.60;;;1.50;;
43606;SDS011;29197;44.788;10.366;2022-07-04T02:40:25;1.90;;;1.80;;
43606;SDS011;29197;44.788;10.366;2022-07-04T02:43:14;2.25;;;1.77;;
43606;SDS011;29197;44.788;10.366;2022-07-04T02:46:05;3.63;;;2.30;;
43606;SDS011;29197;44.788;10.366;2022-07-04T02:48:55;3.63;;;1.88;;
43606;SDS011;29197;44.788;10.366;2022-07-04T02:51:50;3.08;;;2.03;;
43606;SDS011;29197;44.788;10.366;2022-07-04T02:54:39;2.35;;;2.08;;
43606;SDS011;29197;44.788;10.366;2022-07-04T02:57:29;3.33;;;1.67;;
43606;SDS011;29197;44.788;10.366;2022-07-04T03:00:18;3.25;;;1.80;;
43606;SDS011;29197;44.788;10.366;2022-07-04T03:03:09;4.05;;;1.70;;
43606;SDS011;29197;44.788;10.366;2022-07-04T03:05:58;2.95;;;2.08;;
43606;SDS011;29197;44.788;10.366;2022-07-04T03:08:51;4.68;;;1.90;;
43606;SDS011;29197;44.788;10.366;2022-07-04T03:11:41;3.67;;;1.88;;
43606;SDS011;29197;44.788;10.366;2022-07-04T03:14:31;2.13;;;1.92;;
43606;SDS011;29197;44.788;10.366;2022-07-04T03:17:20;2.78;;;1.85;;
43606;SDS011;29197;44.788;10.366;2022-07-04T03:20:11;3.03;;;1.98;;
43606;SDS011;29197;44.788;10.366;2022-07-04T03:23:00;2.08;;;1.88;;
43606;SDS011;29197;44.788;10.366;2022-07-04T03:25:49;4.28;;;1.75;;
43606;SDS011;29197;44.788;10.366;2022-07-04T03:28:39;2.88;;;1.92;;
43606;SDS011;29197;44.788;10.366;2022-07-04T03:31:34;2.15;;;1.98;;
43606;SDS011;29197;44.788;10.366;2022-07-04T03:34:23;2.75;;;1.73;;
43606;SDS011;29197;44.788;10.366;2022-07-04T03:37:14;3.60;;;1.90;;
43606;SDS011;29197;44.788;10.366;2022-07-04T03:40:03;4.22;;;1.80;;
43606;SDS011;29197;44.788;10.366;2022-07-04T03:42:53;2.28;;;1.92;;
43606;SDS011;29197;44.788;10.366;2022-07-04T03:45:42;3.53;;;1.95;;
43606;SDS011;29197;44.788;10.366;2022-07-04T03:48:32;3.40;;;2.38;;
43606;SDS011;29197;44.788;10.366;2022-07-04T03:51:21;5.70;;;2.33;;
43606;SDS011;29197;44.788;10.366;2022-07-04T03:54:12;4.95;;;1.85;;
43606;SDS011;29197;44.788;10.366;2022-07-04T03:57:04;3.22;;;1.77;;
43606;SDS011;29197;44.788;10.366;2022-07-04T03:59:53;3.15;;;1.88;;
43606;SDS011;29197;44.788;10.366;2022-07-04T04:02:43;1.80;;;1.67;;
43606;SDS011;29197;44.788;10.366;2022-07-04T04:05:34;3.38;;;3.08;;
43606;SDS011;29197;44.788;10.366;2022-07-04T04:08:22;4.28;;;1.95;;
43606;SDS011;29197;44.788;10.366;2022-07-04T04:11:13;2.22;;;1.58;;
43606;SDS011;29197;44.788;10.366;2022-07-04T04:14:02;3.10;;;1.80;;
43606;SDS011;29197;44.788;10.366;2022-07-04T04:16:51;1.92;;;1.73;;
43606;SDS011;29197;44.788;10.366;2022-07-04T04:19:41;2.42;;;1.50;;
43606;SDS011;29197;44.788;10.366;2022-07-04T04:22:30;3.50;;;1.80;;
43606;SDS011;29197;44.788;10.366;2022-07-04T04:25:19;2.20;;;2.00;;
43606;SDS011;29197;44.788;10.366;2022-07-04T04:28:09;1.88;;;1.77;;
43606;SDS011;29197;44.788;10.366;2022-07-04T04:30:59;1.85;;;1.50;;
43606;SDS011;29197;44.788;10.366;2022-07-04T04:33:49;2.13;;;1.60;;
43606;SDS011;29197;44.788;10.366;2022-07-04T04:36:38;2.90;;;1.83;;
43606;SDS011;29197;44.788;10.366;2022-07-04T04:39:28;2.50;;;1.70;;
43606;SDS011;29197;44.788;10.366;2022-07-04T04:42:17;2.92;;;1.67;;
43606;SDS011;29197;44.788;10.366;2022-07-04T04:45:09;3.50;;;1.80;;
43606;SDS011;29197;44.788;10.366;2022-07-04T04:47:58;3.55;;;1.60;;
43606;SDS011;29197;44.788;10.366;2022-07-04T04:50:48;2.67;;;1.70;;
43606;SDS011;29197;44.788;10.366;2022-07-04T04:53:37;2.78;;;1.70;;
43606;SDS011;29197;44.788;10.366;2022-07-04T04:56:26;2.72;;;1.98;;
43606;SDS011;29197;44.788;10.366;2022-07-04T04:59:15;1.92;;;1.77;;
43606;SDS011;29197;44.788;10.366;2022-07-04T05:02:06;1.85;;;1.58;;
43606;SDS011;29197;44.788;10.366;2022-07-04T05:05:02;3.13;;;1.92;;
43606;SDS011;29197;44.788;10.366;2022-07-04T05:07:52;3.40;;;1.77;;
43606;SDS011;29197;44.788;10.366;2022-07-04T05:10:43;2.80;;;2.55;;
43606;SDS011;29197;44.788;10.366;2022-07-04T05:13:33;6.72;;;2.47;;
43606;SDS011;29197;44.788;10.366;2022-07-04T05:16:22;2.40;;;1.98;;
43606;SDS011;29197;44.788;10.366;2022-07-04T05:19:13;5.55;;;2.10;;
43606;SDS011;29197;44.788;10.366;2022-07-04T05:22:02;3.05;;;2.10;;
43606;SDS011;29197;44.788;10.366;2022-07-04T05:24:52;4.88;;;2.75;;
43606;SDS011;29197;44.788;10.366;2022-07-04T05:27:41;2.38;;;1.85;;
43606;SDS011;29197;44.788;10.366;2022-07-04T05:30:30;3.58;;;2.35;;
43606;SDS011;29197;44.788;10.366;2022-07-04T05:33:19;3.00;;;2.20;;
43606;SDS011;29197;44.788;10.366;2022-07-04T05:36:10;3.05;;;1.88;;
43606;SDS011;29197;44.788;10.366;2022-07-04T05:39:00;2.45;;;1.75;;
43606;SDS011;29197;44.788;10.366;2022-07-04T05:41:49;2.95;;;2.30;;
43606;SDS011;29197;44.788;10.366;2022-07-04T05:44:38;4.88;;;1.98;;
43606;SDS011;29197;44.788;10.366;2022-07-04T05:47:28;3.70;;;1.65;;
43606;SDS011;29197;44.788;10.366;2022-07-04T05:50:18;1.98;;;1.75;;
43606;SDS011;29197;44.788;10.366;2022-07-04T05:53:08;2.92;;;1.40;;
43606;SDS011;29197;44.788;10.366;2022-07-04T05:55:57;3.08;;;1.63;;
43606;SDS011;29197;44.788;10.366;2022-07-04T05:58:47;1.95;;;1.58;;
43606;SDS011;29197;44.788;10.366;2022-07-04T06:01:36;2.55;;;1.20;;
43606;SDS011;29197;44.788;10.366;2022-07-04T06:04:26;7.20;;;3.28;;
43606;SDS011;29197;44.788;10.366;2022-07-04T06:07:15;4.35;;;1.67;;
43606;SDS011;29197;44.788;10.366;2022-07-04T06:10:08;1.92;;;1.65;;
43606;SDS011;29197;44.788;10.366;2022-07-04T06:12:57;2.55;;;1.65;;
43606;SDS011;29197;44.788;10.366;2022-07-04T06:15:47;2.22;;;1.92;;
43606;SDS011;29197;44.788;10.366;2022-07-04T06:18:36;3.35;;;1.90;;
43606;SDS011;29197;44.788;10.366;2022-07-04T06:21:26;2.75;;;1.65;;
43606;SDS011;29197;44.788;10.366;2022-07-04T06:24:15;1.40;;;1.30;;
43606;SDS011;29197;44.788;10.366;2022-07-04T06:27:07;2.70;;;1.38;;
43606;SDS011;29197;44.788;10.366;2022-07-04T06:29:57;1.77;;;1.45;;
43606;SDS011;29197;44.788;10.366;2022-07-04T06:32:48;5.25;;;1.50;;
43606;SDS011;29197;44.788;10.366;2022-07-04T06:35:38;1.73;;;1.55;;
43606;SDS011;29197;44.788;10.366;2022-07-04T06:38:32;5.15;;;1.90;;
43606;SDS011;29197;44.788;10.366;2022-07-04T06:41:21;5.45;;;2.38;;
43606;SDS011;29197;44.788;10.366;2022-07-04T06:44:11;3.95;;;1.77;;
43606;SDS011;29197;44.788;10.366;2022-07-04T06:47:01;2.38;;;1.60;;
43606;SDS011;29197;44.788;10.366;2022-07-04T06:49:50;3.75;;;2.78;;
43606;SDS011;29197;44.788;10.366;2022-07-04T06:52:39;7.07;;;2.60;;
43606;SDS011;29197;44.788;10.366;2022-07-04T06:55:29;7.57;;;2.17;;
43606;SDS011;29197;44.788;10.366;2022-07-04T06:58:18;4.03;;;2.85;;
43606;SDS011;29197;44.788;10.366;2022-07-04T07:01:09;5.53;;;3.00;;
43606;SDS011;29197;44.788;10.366;2022-07-04T07:03:59;6.45;;;3.10;;
43606;SDS011;29197;44.788;10.366;2022-07-04T07:06:48;8.43;;;4.05;;
43606;SDS011;29197;44.788;10.366;2022-07-04T07:09:38;3.20;;;2.83;;
43606;SDS011;29197;44.788;10.366;2022-07-04T07:12:28;6.15;;;3.05;;
43606;SDS011;29197;44.788;10.366;2022-07-04T07:15:18;4.55;;;2.97;;
43606;SDS011;29197;44.788;10.366;2022-07-04T07:18:09;7.80;;;3.08;;
43606;SDS011;29197;44.788;10.366;2022-07-04T07:20:58;6.70;;;3.75;;
43606;SDS011;29197;44.788;10.366;2022-07-04T07:23:48;7.85;;;3.92;;
43606;SDS011;29197;44.788;10.366;2022-07-04T07:26:37;8.02;;;3.33;;
43606;SDS011;29197;44.788;10.366;2022-07-04T07:29:27;6.32;;;3.40;;
43606;SDS011;29197;44.788;10.366;2022-07-04T07:32:16;7.28;;;5.10;;
43606;SDS011;29197;44.788;10.366;2022-07-04T07:35:08;6.13;;;3.40;;
43606;SDS011;29197;44.788;10.366;2022-07-04T07:37:57;4.75;;;3.15;;
43606;SDS011;29197;44.788;10.366;2022-07-04T07:40:46;7.03;;;3.40;;
43606;SDS011;29197;44.788;10.366;2022-07-04T07:43:36;6.15;;;3.60;;
43606;SDS011;29197;44.788;10.366;2022-07-04T07:46:25;4.70;;;3.72;;
43606;SDS011;29197;44.788;10.366;2022-07-04T07:49:14;7.85;;;3.22;;
43606;SDS011;29197;44.788;10.366;2022-07-04T07:52:06;7.00;;;3.42;;
43606;SDS011;29197;44.788;10.366;2022-07-04T07:54:55;6.35;;;3.30;;
43606;SDS011;29197;44.788;10.366;2022-07-04T07:57:47;4.03;;;2.67;;
43606;SDS011;29197;44.788;10.366;2022-07-04T08:00:36;6.18;;;3.42;;
43606;SDS011;29197;44.788;10.366;2022-07-04T08:03:42;3.97;;;3.00;;
43606;SDS011;29197;44.788;10.366;2022-07-04T08:06:48;6.93;;;3.95;;
43606;SDS011;29197;44.788;10.366;2022-07-04T08:09:59;12.63;;;4.55;;
43606;SDS011;29197;44.788;10.366;2022-07-04T08:12:48;3.55;;;2.70;;
43606;SDS011;29197;44.788;10.366;2022-07-04T08:15:37;3.85;;;2.60;;
43606;SDS011;29197;44.788;10.366;2022-07-04T08:18:26;4.63;;;2.33;;
43606;SDS011;29197;44.788;10.366;2022-07-04T08:21:16;3.10;;;2.80;;
43606;SDS011;29197;44.788;10.366;2022-07-04T08:24:06;3.35;;;2.50;;
43606;SDS011;29197;44.788;10.366;2022-07-04T08:27:07;5.70;;;2.88;;
43606;SDS011;29197;44.788;10.366;2022-07-04T08:29:56;9.77;;;2.92;;
43606;SDS011;29197;44.788;10.366;2022-07-04T08:32:46;5.22;;;2.70;;
43606;SDS011;29197;44.788;10.366;2022-07-04T08:35:35;4.53;;;2.97;;
43606;SDS011;29197;44.788;10.366;2022-07-04T08:38:24;2.80;;;2.60;;
43606;SDS011;29197;44.788;10.366;2022-07-04T08:41:15;3.75;;;2.67;;
43606;SDS011;29197;44.788;10.366;2022-07-04T08:44:12;8.25;;;3.45;;
43606;SDS011;29197;44.788;10.366;2022-07-04T08:47:01;4.95;;;3.00;;
43606;SDS011;29197;44.788;10.366;2022-07-04T08:49:53;3.45;;;2.40;;
43606;SDS011;29197;44.788;10.366;2022-07-04T08:52:47;3.53;;;2.30;;
43606;SDS011;29197;44.788;10.366;2022-07-04T08:55:41;6.20;;;2.60;;
43606;SDS011;29197;44.788;10.366;2022-07-04T08:58:48;4.93;;;2.88;;
43606;SDS011;29197;44.788;10.366;2022-07-04T09:01:40;3.65;;;3.10;;
43606;SDS011;29197;44.788;10.366;2022-07-04T09:04:29;8.07;;;4.07;;
43606;SDS011;29197;44.788;10.366;2022-07-04T09:07:18;7.20;;;4.15;;
43606;SDS011;29197;44.788;10.366;2022-07-04T09:10:08;3.88;;;3.10;;
43606;SDS011;29197;44.788;10.366;2022-07-04T09:13:00;7.63;;;4.10;;
43606;SDS011;29197;44.788;10.366;2022-07-04T09:15:59;7.55;;;3.40;;
43606;SDS011;29197;44.788;10.366;2022-07-04T09:18:50;8.43;;;3.40;;
43606;SDS011;29197;44.788;10.366;2022-07-04T09:21:43;6.28;;;5.60;;
43606;SDS011;29197;44.788;10.366;2022-07-04T09:24:45;6.47;;;4.22;;
43606;SDS011;29197;44.788;10.366;2022-07-04T09:27:35;4.05;;;3.60;;
43606;SDS011;29197;44.788;10.366;2022-07-04T09:30:27;4.65;;;3.22;;
43606;SDS011;29197;44.788;10.366;2022-07-04T09:33:16;3.90;;;2.67;;
43606;SDS011;29197;44.788;10.366;2022-07-04T09:36:12;7.03;;;3.53;;
43606;SDS011;29197;44.788;10.366;2022-07-04T09:39:10;4.95;;;2.92;;
43606;SDS011;29197;44.788;10.366;2022-07-04T09:42:02;5.65;;;2.75;;
43606;SDS011;29197;44.788;10.366;2022-07-04T09:44:51;5.75;;;3.30;;
43606;SDS011;29197;44.788;10.366;2022-07-04T09:47:41;3.17;;;2.88;;
43606;SDS011;29197;44.788;10.366;2022-07-04T09:50:31;3.72;;;3.15;;
43606;SDS011;29197;44.788;10.366;2022-07-04T09:53:26;5.05;;;3.30;;
43606;SDS011;29197;44.788;10.366;2022-07-04T09:56:16;7.10;;;3.20;;
43606;SDS011;29197;44.788;10.366;2022-07-04T09:59:05;3.50;;;3.00;;
43606;SDS011;29197;44.788;10.366;2022-07-04T10:05:00;4.80;;;3.10;;
43606;SDS011;29197;44.788;10.366;2022-07-04T10:07:56;4.68;;;2.95;;
43606;SDS011;29197;44.788;10.366;2022-07-04T10:10:47;7.68;;;3.58;;
43606;SDS011;29197;44.788;10.366;2022-07-04T10:13:37;7.03;;;4.00;;
43606;SDS011;29197;44.788;10.366;2022-07-04T10:16:26;5.78;;;2.78;;
43606;SDS011;29197;44.788;10.366;2022-07-04T10:19:17;3.45;;;3.08;;
43606;SDS011;29197;44.788;10.366;2022-07-04T10:22:06;6.47;;;3.00;;
43606;SDS011;29197;44.788;10.366;2022-07-04T10:24:56;4.10;;;2.97;;
43606;SDS011;29197;44.788;10.366;2022-07-04T10:27:48;6.22;;;2.83;;
43606;SDS011;29197;44.788;10.366;2022-07-04T10:30:39;6.13;;;2.92;;
43606;SDS011;29197;44.788;10.366;2022-07-04T10:33:29;4.70;;;3.03;;
43606;SDS011;29197;44.788;10.366;2022-07-04T10:36:19;5.32;;;2.88;;
43606;SDS011;29197;44.788;10.366;2022-07-04T10:39:09;6.38;;;2.85;;
43606;SDS011;29197;44.788;10.366;2022-07-04T10:41:58;6.28;;;3.05;;
43606;SDS011;29197;44.788;10.366;2022-07-04T10:44:50;6.53;;;4.43;;
43606;SDS011;29197;44.788;10.366;2022-07-04T10:47:40;10.15;;;4.82;;
43606;SDS011;29197;44.788;10.366;2022-07-04T10:50:55;6.13;;;3.47;;
43606;SDS011;29197;44.788;10.366;2022-07-04T10:53:57;4.90;;;3.17;;
43606;SDS011;29197;44.788;10.366;2022-07-04T10:56:48;5.82;;;3.53;;
43606;SDS011;29197;44.788;10.366;2022-07-04T10:59:38;8.20;;;4.40;;
43606;SDS011;29197;44.788;10.366;2022-07-04T11:02:29;5.07;;;3.50;;
43606;SDS011;29197;44.788;10.366;2022-07-04T11:05:26;4.32;;;3.53;;
43606;SDS011;29197;44.788;10.366;2022-07-04T11:08:19;6.38;;;3.08;;
43606;SDS011;29197;44.788;10.366;2022-07-04T11:11:11;3.17;;;2.88;;
43606;SDS011;29197;44.788;10.366;2022-07-04T11:14:37;6.07;;;3.17;;
43606;SDS011;29197;44.788;10.366;2022-07-04T11:17:35;3.42;;;3.03;;
43606;SDS011;29197;44.788;10.366;2022-07-04T11:20:26;8.23;;;3.70;;
43606;SDS011;29197;44.788;10.366;2022-07-04T11:23:18;6.22;;;2.90;;
43606;SDS011;29197;44.788;10.366;2022-07-04T11:26:07;6.38;;;3.50;;
43606;SDS011;29197;44.788;10.366;2022-07-04T11:28:57;4.40;;;2.70;;
43606;SDS011;29197;44.788;10.366;2022-07-04T11:31:46;5.97;;;2.78;;
43606;SDS011;29197;44.788;10.366;2022-07-04T11:34:38;4.90;;;2.90;;
43606;SDS011;29197;44.788;10.366;2022-07-04T11:37:28;7.38;;;3.50;;
43606;SDS011;29197;44.788;10.366;2022-07-04T11:40:18;10.35;;;3.45;;
43606;SDS011;29197;44.788;10.366;2022-07-04T11:43:24;7.13;;;3.60;;
43606;SDS011;29197;44.788;10.366;2022-07-04T11:46:30;6.47;;;2.95;;
43606;SDS011;29197;44.788;10.366;2022-07-04T11:49:19;6.43;;;3.10;;
43606;SDS011;29197;44.788;10.366;2022-07-04T11:52:10;4.93;;;2.92;;
43606;SDS011;29197;44.788;10.366;2022-07-04T11:55:00;5.20;;;3.40;;
43606;SDS011;29197;44.788;10.366;2022-07-04T11:57:49;8.80;;;3.17;;
43606;SDS011;29197;44.788;10.366;2022-07-04T12:00:41;5.85;;;3.03;;
43606;SDS011;29197;44.788;10.366;2022-07-04T12:03:31;6.13;;;3.10;;
43606;SDS011;29197;44.788;10.366;2022-07-04T12:06:22;3.45;;;2.58;;
43606;SDS011;29197;44.788;10.366;2022-07-04T12:09:13;7.20;;;2.90;;
43606;SDS011;29197;44.788;10.366;2022-07-04T12:12:04;5.20;;;3.50;;
43606;SDS011;29197;44.788;10.366;2022-07-04T12:14:57;7.72;;;4.20;;
43606;SDS011;29197;44.788;10.366;2022-07-04T12:17:52;5.43;;;2.90;;
43606;SDS011;29197;44.788;10.366;2022-07-04T12:20:41;4.60;;;3.17;;
43606;SDS011;29197;44.788;10.366;2022-07-04T12:23:31;4.82;;;2.70;;
43606;SDS011;29197;44.788;10.366;2022-07-04T12:26:22;3.67;;;2.88;;
43606;SDS011;29197;44.788;10.366;2022-07-04T12:29:12;5.15;;;3.38;;
43606;SDS011;29197;44.788;10.366;2022-07-04T12:32:16;6.20;;;2.95;;
43606;SDS011;29197;44.788;10.366;2022-07-04T12:35:06;6.32;;;2.97;;
43606;SDS011;29197;44.788;10.366;2022-07-04T12:38:01;5.72;;;2.97;;
43606;SDS011;29197;44.788;10.366;2022-07-04T12:40:57;3.83;;;3.10;;
43606;SDS011;29197;44.788;10.366;2022-07-04T12:43:49;7.15;;;3.08;;
43606;SDS011;29197;44.788;10.366;2022-07-04T12:46:39;5.25;;;3.22;;
43606;SDS011;29197;44.788;10.366;2022-07-04T12:49:49;7.07;;;3.47;;
43606;SDS011;29197;44.788;10.366;2022-07-04T12:52:39;6.82;;;3.40;;
43606;SDS011;29197;44.788;10.366;2022-07-04T12:55:29;5.40;;;3.33;;
43606;SDS011;29197;44.788;10.366;2022-07-04T12:58:18;7.13;;;3.13;;
43606;SDS011;29197;44.788;10.366;2022-07-04T13:01:09;4.88;;;2.78;;
43606;SDS011;29197;44.788;10.366;2022-07-04T13:03:58;4.47;;;3.40;;
43606;SDS011;29197;44.788;10.366;2022-07-04T13:06:48;5.45;;;3.72;;
43606;SDS011;29197;44.788;10.366;2022-07-04T13:09:38;8.20;;;3.10;;
43606;SDS011;29197;44.788;10.366;2022-07-04T13:12:27;5.45;;;2.88;;
43606;SDS011;29197;44.788;10.366;2022-07-04T13:15:16;5.97;;;3.13;;
43606;SDS011;29197;44.788;10.366;2022-07-04T13:18:07;4.90;;;2.78;;
43606;SDS011;29197;44.788;10.366;2022-07-04T13:20:56;5.00;;;2.92;;
43606;SDS011;29197;44.788;10.366;2022-07-04T13:23:45;5.35;;;2.90;;
43606;SDS011;29197;44.788;10.366;2022-07-04T13:26:35;6.28;;;2.90;;
43606;SDS011;29197;44.788;10.366;2022-07-04T13:29:24;7.82;;;2.75;;
43606;SDS011;29197;44.788;10.366;2022-07-04T13:32:14;6.50;;;2.92;;
43606;SDS011;29197;44.788;10.366;2022-07-04T13:35:04;3.78;;;2.83;;
43606;SDS011;29197;44.788;10.366;2022-07-04T13:37:54;6.68;;;2.83;;
43606;SDS011;29197;44.788;10.366;2022-07-04T13:40:47;4.78;;;2.88;;
43606;SDS011;29197;44.788;10.366;2022-07-04T13:43:36;3.85;;;2.72;;
43606;SDS011;29197;44.788;10.366;2022-07-04T13:46:26;3.05;;;2.38;;
43606;SDS011;29197;44.788;10.366;2022-07-04T13:49:15;4.32;;;2.50;;
43606;SDS011;29197;44.788;10.366;2022-07-04T13:52:06;3.63;;;2.78;;
43606;SDS011;29197;44.788;10.366;2022-07-04T13:54:55;3.47;;;2.60;;
43606;SDS011;29197;44.788;10.366;2022-07-04T13:57:44;3.88;;;2.72;;
43606;SDS011;29197;44.788;10.366;2022-07-04T14:00:34;3.25;;;2.60;;
43606;SDS011;29197;44.788;10.366;2022-07-04T14:03:24;2.67;;;2.30;;
43606;SDS011;29197;44.788;10.366;2022-07-04T14:06:14;2.45;;;2.17;;
43606;SDS011;29197;44.788;10.366;2022-07-04T14:09:06;6.53;;;2.80;;
43606;SDS011;29197;44.788;10.366;2022-07-04T14:11:55;8.77;;;2.70;;
43606;SDS011;29197;44.788;10.366;2022-07-04T14:14:45;4.45;;;2.50;;
43606;SDS011;29197;44.788;10.366;2022-07-04T14:17:33;4.38;;;2.63;;
43606;SDS011;29197;44.788;10.366;2022-07-04T14:20:23;3.85;;;2.55;;
43606;SDS011;29197;44.788;10.366;2022-07-04T14:23:12;2.83;;;2.33;;
43606;SDS011;29197;44.788;10.366;2022-07-04T14:26:23;2.47;;;2.28;;
43606;SDS011;29197;44.788;10.366;2022-07-04T14:29:12;4.75;;;2.83;;
43606;SDS011;29197;44.788;10.366;2022-07-04T14:32:02;3.25;;;2.20;;
43606;SDS011;29197;44.788;10.366;2022-07-04T14:34:51;2.72;;;2.20;;
43606;SDS011;29197;44.788;10.366;2022-07-04T14:37:41;5.18;;;2.60;;
43606;SDS011;29197;44.788;10.366;2022-07-04T14:40:30;4.60;;;2.40;;
43606;SDS011;29197;44.788;10.366;2022-07-04T14:43:21;2.95;;;2.38;;
43606;SDS011;29197;44.788;10.366;2022-07-04T14:46:10;4.05;;;2.33;;
43606;SDS011;29197;44.788;10.366;2022-07-04T14:49:00;5.72;;;2.75;;
43606;SDS011;29197;44.788;10.366;2022-07-04T14:51:50;4.30;;;2.38;;
43606;SDS011;29197;44.788;10.366;2022-07-04T14:54:40;2.70;;;2.50;;
43606;SDS011;29197;44.788;10.366;2022-07-04T14:57:29;6.10;;;2.40;;
43606;SDS011;29197;44.788;10.366;2022-07-04T15:00:20;4.82;;;2.65;;
43606;SDS011;29197;44.788;10.366;2022-07-04T15:03:09;5.65;;;2.28;;
43606;SDS011;29197;44.788;10.366;2022-07-04T15:05:58;2.97;;;2.30;;
43606;SDS011;29197;44.788;10.366;2022-07-04T15:08:48;6.20;;;2.45;;
43606;SDS011;29197;44.788;10.366;2022-07-04T15:11:37;2.22;;;1.98;;
43606;SDS011;29197;44.788;10.366;2022-07-04T15:14:27;2.83;;;2.28;;
43606;SDS011;29197;44.788;10.366;2022-07-04T15:17:17;9.93;;;2.75;;
43606;SDS011;29197;44.788;10.366;2022-07-04T15:20:07;4.30;;;2.10;;
43606;SDS011;29197;44.788;10.366;2022-07-04T15:23:15;3.40;;;2.53;;
43606;SDS011;29197;44.788;10.366;2022-07-04T15:26:21;3.70;;;2.15;;
43606;SDS011;29197;44.788;10.366;2022-07-04T15:29:10;2.47;;;2.10;;
43606;SDS011;29197;44.788;10.366;2022-07-04T15:32:00;2.55;;;2.35;;
43606;SDS011;29197;44.788;10.366;2022-07-04T15:34:57;9.77;;;2.75;;
43606;SDS011;29197;44.788;10.366;2022-07-04T15:38:00;4.53;;;2.20;;
43606;SDS011;29197;44.788;10.366;2022-07-04T15:40:49;3.50;;;2.25;;
43606;SDS011;29197;44.788;10.366;2022-07-04T15:43:39;7.60;;;2.08;;
43606;SDS011;29197;44.788;10.366;2022-07-04T15:46:28;2.53;;;2.20;;
43606;SDS011;29197;44.788;10.366;2022-07-04T15:49:17;2.95;;;2.08;;
43606;SDS011;29197;44.788;10.366;2022-07-04T15:52:08;4.25;;;2.40;;
43606;SDS011;29197;44.788;10.366;2022-07-04T15:54:58;2.97;;;2.13;;
43606;SDS011;29197;44.788;10.366;2022-07-04T15:57:47;5.78;;;2.72;;
43606;SDS011;29197;44.788;10.366;2022-07-04T16:00:36;5.20;;;2.70;;
43606;SDS011;29197;44.788;10.366;2022-07-04T16:03:26;4.18;;;2.28;;
43606;SDS011;29197;44.788;10.366;2022-07-04T16:06:15;2.60;;;2.00;;
43606;SDS011;29197;44.788;10.366;2022-07-04T16:09:06;2.30;;;2.10;;
43606;SDS011;29197;44.788;10.366;2022-07-04T16:11:55;6.32;;;2.70;;
43606;SDS011;29197;44.788;10.366;2022-07-04T16:14:44;4.15;;;2.50;;
43606;SDS011;29197;44.788;10.366;2022-07-04T16:17:33;4.57;;;2.63;;
43606;SDS011;29197;44.788;10.366;2022-07-04T16:20:22;5.57;;;2.45;;
43606;SDS011;29197;44.788;10.366;2022-07-04T16:23:11;3.95;;;2.40;;
43606;SDS011;29197;44.788;10.366;2022-07-04T16:26:02;5.82;;;2.88;;
43606;SDS011;29197;44.788;10.366;2022-07-04T16:28:52;3.92;;;3.17;;
43606;SDS011;29197;44.788;10.366;2022-07-04T16:31:41;8.02;;;2.92;;
43606;SDS011;29197;44.788;10.366;2022-07-04T16:34:30;5.20;;;2.70;;
43606;SDS011;29197;44.788;10.366;2022-07-04T16:37:20;4.90;;;2.38;;
43606;SDS011;29197;44.788;10.366;2022-07-04T16:40:10;2.97;;;2.40;;
43606;SDS011;29197;44.788;10.366;2022-07-04T16:43:01;2.60;;;2.38;;
43606;SDS011;29197;44.788;10.366;2022-07-04T16:45:58;5.40;;;3.03;;
43606;SDS011;29197;44.788;10.366;2022-07-04T16:48:47;2.90;;;2.25;;
43606;SDS011;29197;44.788;10.366;2022-07-04T16:51:37;3.92;;;2.25;;
43606;SDS011;29197;44.788;10.366;2022-07-04T16:54:26;5.78;;;2.63;;
43606;SDS011;29197;44.788;10.366;2022-07-04T16:57:16;4.68;;;2.88;;